Terminal Aerodrome Forecast
Issued by NWS

Home | Current Version | Previous Version | Graphics & Text | Print | Product List | Glossary On
Versions: 1 2 3 4 5 6 7 8 9 10 11 12 13 14 15 16 17 18 19 20 21 22 23 24
000
FTUS43 KABR 230100 AAB
TAFATY
TAF AMD
KATY 230134Z 2302/2324 16011KT 6SM BR FEW004 OVC250
      TEMPO 2302/2304 2SM BR
     FM230400 19010KT 2SM BR BKN250
     FM230800 26008KT 5SM BR BKN090 OVC150
     FM231100 29008KT P6SM OVC090
     FM231800 30015G24KT P6SM SCT090 BKN150=

USA.gov is the U.S. government's official web portal to all federal, state and local government web resources and services.